createdAt,value
2022-09-27T00:01:01.317Z,5.35
2022-09-27T00:03:30.142Z,6.25
2022-09-27T00:06:08.295Z,5.97
2022-09-27T00:08:38.179Z,6.00
2022-09-27T00:11:13.625Z,6.65
2022-09-27T00:13:41.907Z,6.93
2022-09-27T00:16:11.394Z,7.25
2022-09-27T00:18:39.567Z,5.13
2022-09-27T00:21:10.110Z,7.97
2022-09-27T00:23:38.690Z,5.25
2022-09-27T00:26:09.996Z,7.70
2022-09-27T00:28:38.041Z,6.28
2022-09-27T00:31:12.351Z,5.70
2022-09-27T00:33:40.909Z,8.38
2022-09-27T00:36:10.986Z,9.38
2022-09-27T00:38:39.667Z,8.18
2022-09-27T00:41:14.595Z,8.30
2022-09-27T00:43:50.051Z,9.13
2022-09-27T00:46:27.486Z,7.90
2022-09-27T00:49:06.667Z,9.05
2022-09-27T00:51:37.478Z,8.63
2022-09-27T00:54:09.856Z,7.47
2022-09-27T00:56:40.062Z,9.43
2022-09-27T00:59:15.365Z,10.45
2022-09-27T01:01:44.075Z,9.50
2022-09-27T01:04:15.135Z,7.50
2022-09-27T01:06:43.138Z,10.07
2022-09-27T01:09:13.101Z,10.35
2022-09-27T01:11:49.422Z,9.52
2022-09-27T01:14:38.977Z,8.10
2022-09-27T01:17:23.554Z,7.90
2022-09-27T01:20:25.196Z,9.23
2022-09-27T01:23:15.909Z,9.27
2022-09-27T01:26:01.703Z,9.05
2022-09-27T01:28:47.406Z,9.27
2022-09-27T01:31:25.540Z,9.27
2022-09-27T01:34:04.633Z,9.23
2022-09-27T01:36:48.527Z,5.75
2022-09-27T01:39:33.669Z,6.10
2022-09-27T01:42:28.096Z,6.32
2022-09-27T01:45:06.858Z,7.25
2022-09-27T01:47:50.658Z,6.95
2022-09-27T01:50:47.104Z,7.10
2022-09-27T01:53:22.660Z,7.15
2022-09-27T01:56:19.279Z,7.28
2022-09-27T01:58:59.389Z,6.78
2022-09-27T02:01:31.055Z,6.40
2022-09-27T02:04:02.704Z,6.20
2022-09-27T02:06:53.977Z,5.85
2022-09-27T02:09:34.388Z,9.48
2022-09-27T02:12:24.232Z,6.90
2022-09-27T02:14:57.740Z,7.50
2022-09-27T02:17:38.802Z,7.07
2022-09-27T02:20:16.643Z,5.57
2022-09-27T02:22:57.958Z,6.05
2022-09-27T02:25:33.952Z,5.05
2022-09-27T02:28:12.401Z,4.10
2022-09-27T02:30:41.405Z,5.35
2022-09-27T02:33:32.758Z,5.72
2022-09-27T02:36:03.227Z,5.43
2022-09-27T02:38:32.024Z,5.57
2022-09-27T02:41:01.665Z,4.97
2022-09-27T02:43:33.423Z,5.20
2022-09-27T02:46:21.917Z,5.03
2022-09-27T02:49:05.430Z,4.93
2022-09-27T02:51:48.728Z,4.20
2022-09-27T02:54:26.187Z,3.95
2022-09-27T02:57:34.279Z,3.40
2022-09-27T03:00:33.406Z,3.95
2022-09-27T03:03:34.881Z,4.53
2022-09-27T03:06:07.692Z,4.25
2022-09-27T03:08:38.983Z,3.55
2022-09-27T03:11:08.524Z,4.13
2022-09-27T03:14:01.377Z,4.28
2022-09-27T03:16:27.801Z,3.63
2022-09-27T03:19:11.231Z,3.95
2022-09-27T03:21:57.690Z,3.72
2022-09-27T03:24:27.661Z,4.45
2022-09-27T03:26:55.784Z,3.35
2022-09-27T03:29:24.725Z,4.22
2022-09-27T03:32:00.565Z,3.50
2022-09-27T03:34:46.316Z,3.22
2022-09-27T03:37:14.402Z,2.85
2022-09-27T03:39:43.696Z,2.97
2022-09-27T03:42:11.837Z,2.00
2022-09-27T03:44:45.635Z,3.15
2022-09-27T03:47:13.834Z,2.42
2022-09-27T03:49:41.892Z,3.53
2022-09-27T03:52:09.918Z,3.40
2022-09-27T03:54:38.472Z,2.35
2022-09-27T03:57:07.887Z,2.85
2022-09-27T03:59:36.676Z,2.97
2022-09-27T04:02:23.526Z,3.20
2022-09-27T04:05:10.577Z,3.05
2022-09-27T04:07:39.370Z,3.95
2022-09-27T04:10:08.719Z,3.22
2022-09-27T04:12:40.430Z,2.95
2022-09-27T04:15:10.145Z,2.97
2022-09-27T04:18:01.344Z,2.72
2022-09-27T04:20:37.067Z,3.40
2022-09-27T04:23:09.088Z,2.90
2022-09-27T04:25:40.433Z,2.10
2022-09-27T04:28:22.663Z,2.50
2022-09-27T04:30:51.433Z,2.53
2022-09-27T04:33:35.951Z,1.77
2022-09-27T04:36:26.073Z,2.53
2022-09-27T04:39:04.881Z,2.95
2022-09-27T04:41:35.655Z,2.63
2022-09-27T04:44:06.529Z,3.20
2022-09-27T04:46:35.125Z,3.15
2022-09-27T04:49:03.928Z,2.45
2022-09-27T04:51:34.515Z,2.40
2022-09-27T04:54:02.956Z,2.40
2022-09-27T04:56:34.012Z,2.05
2022-09-27T04:59:09.802Z,1.65
2022-09-27T05:01:38.901Z,3.10
2022-09-27T05:04:16.876Z,2.50
2022-09-27T05:06:53.629Z,2.40
2022-09-27T05:09:30.034Z,3.40
2022-09-27T05:11:59.240Z,3.20
2022-09-27T05:14:54.445Z,2.03
2022-09-27T05:17:45.552Z,1.92
2022-09-27T05:20:19.931Z,2.58
2022-09-27T05:23:06.826Z,2.95
2022-09-27T05:25:35.661Z,2.20
2022-09-27T05:28:04.677Z,2.20
2022-09-27T05:30:35.540Z,2.05
2022-09-27T05:33:12.130Z,2.13
2022-09-27T05:35:53.988Z,2.40
2022-09-27T05:38:25.796Z,2.20
2022-09-27T05:40:57.283Z,2.10
2022-09-27T05:43:26.216Z,2.03
2022-09-27T05:45:56.169Z,1.88
2022-09-27T05:48:24.764Z,2.22
2022-09-27T05:51:01.704Z,2.30
2022-09-27T05:53:32.460Z,1.90
2022-09-27T05:56:04.008Z,2.42
2022-09-27T05:58:47.789Z,2.60
2022-09-27T06:01:20.344Z,2.47
2022-09-27T06:04:11.086Z,2.67
2022-09-27T06:07:08.460Z,2.55
2022-09-27T06:09:36.568Z,2.55
2022-09-27T06:12:04.914Z,3.25
2022-09-27T06:14:35.036Z,2.83
2022-09-27T06:17:15.895Z,2.10
2022-09-27T06:19:47.672Z,2.97
2022-09-27T06:22:16.709Z,2.50
2022-09-27T06:24:58.500Z,3.08
2022-09-27T06:27:29.675Z,3.10
2022-09-27T06:30:01.192Z,1.38
2022-09-27T06:32:49.204Z,3.38
2022-09-27T06:35:31.286Z,2.70
2022-09-27T06:37:59.763Z,2.97
2022-09-27T06:40:28.432Z,2.97
2022-09-27T06:43:17.293Z,3.30
2022-09-27T06:46:06.445Z,2.72
2022-09-27T06:48:55.531Z,2.45
2022-09-27T06:51:23.965Z,2.78
2022-09-27T06:53:52.210Z,3.28
2022-09-27T06:56:20.794Z,3.85
2022-09-27T06:59:05.225Z,2.75
2022-09-27T07:01:47.222Z,2.25
2022-09-27T07:04:52.756Z,3.45
2022-09-27T07:07:40.059Z,3.80
2022-09-27T07:10:10.133Z,3.38
2022-09-27T07:12:39.492Z,3.78
2022-09-27T07:15:08.531Z,4.32
2022-09-27T07:17:37.456Z,4.13
2022-09-27T07:20:08.552Z,4.40
2022-09-27T07:22:42.368Z,3.65
2022-09-27T07:25:11.406Z,4.72
2022-09-27T07:27:41.776Z,4.85
2022-09-27T07:30:13.722Z,4.03
2022-09-27T07:32:42.353Z,4.78
2022-09-27T07:35:15.075Z,3.38
2022-09-27T07:40:14.667Z,3.15
2022-09-27T07:42:43.278Z,2.55
2022-09-27T07:45:13.735Z,4.20
2022-09-27T07:47:51.651Z,3.20
2022-09-27T07:50:31.788Z,4.57
2022-09-27T07:53:06.004Z,4.20
2022-09-27T07:55:53.630Z,2.35
2022-09-27T07:58:26.534Z,4.35
2022-09-27T08:01:00.853Z,4.05
2022-09-27T08:03:29.243Z,4.10
2022-09-27T08:06:02.982Z,4.18
2022-09-27T08:08:31.439Z,2.75
2022-09-27T08:11:00.611Z,3.60
2022-09-27T08:13:29.559Z,4.38
2022-09-27T08:16:03.679Z,4.70
2022-09-27T08:18:42.253Z,3.85
2022-09-27T08:21:34.920Z,3.60
2022-09-27T08:24:22.958Z,3.75
2022-09-27T08:27:00.575Z,4.00
2022-09-27T08:29:42.645Z,3.83
2022-09-27T08:32:11.446Z,2.97
2022-09-27T08:34:39.801Z,3.58
2022-09-27T08:37:09.300Z,3.78
2022-09-27T08:39:39.640Z,4.57
2022-09-27T08:42:22.282Z,2.85
2022-09-27T08:45:03.649Z,2.75
2022-09-27T08:47:40.119Z,3.05
2022-09-27T08:50:23.665Z,1.98
2022-09-27T08:52:58.493Z,2.88
2022-09-27T08:55:37.352Z,3.22
2022-09-27T08:58:18.405Z,3.13
2022-09-27T09:00:46.959Z,2.63
2022-09-27T09:03:21.886Z,2.30
2022-09-27T09:06:05.277Z,2.97
2022-09-27T09:08:50.723Z,2.60
2022-09-27T09:11:50.188Z,2.20
2022-09-27T09:14:54.098Z,2.15
2022-09-27T09:17:43.664Z,2.22
2022-09-27T09:20:58.397Z,1.95
2022-09-27T09:23:54.345Z,2.38
2022-09-27T09:26:33.782Z,1.45
2022-09-27T09:29:37.508Z,1.50
2022-09-27T09:32:20.452Z,0.93
2022-09-27T09:34:54.849Z,1.02
2022-09-27T09:37:32.775Z,1.27
2022-09-27T09:40:09.331Z,1.30
2022-09-27T09:42:44.447Z,1.10
2022-09-27T09:45:20.128Z,1.13
2022-09-27T09:47:58.479Z,1.00
2022-09-27T09:50:31.336Z,1.20
2022-09-27T09:53:05.774Z,1.23
2022-09-27T09:55:37.378Z,0.95
2022-09-27T09:58:22.163Z,1.75
2022-09-27T10:01:00.466Z,0.90
2022-09-27T10:03:29.062Z,1.00
2022-09-27T10:05:57.283Z,2.17
2022-09-27T10:08:25.701Z,1.10
2022-09-27T10:11:24.186Z,1.40
2022-09-27T10:14:11.998Z,1.00
2022-09-27T10:16:43.194Z,1.00
2022-09-27T10:19:13.243Z,1.25
2022-09-27T10:21:45.195Z,1.15
2022-09-27T10:24:18.690Z,1.00
2022-09-27T10:27:06.748Z,1.02
2022-09-27T10:32:27.402Z,1.17
2022-09-27T10:35:33.497Z,0.98
2022-09-27T10:38:26.556Z,1.20
2022-09-27T10:41:22.986Z,0.68
2022-09-27T10:43:53.043Z,0.77
2022-09-27T10:46:34.329Z,0.70
2022-09-27T10:49:23.950Z,0.70
2022-09-27T10:51:56.581Z,0.68
2022-09-27T10:54:28.555Z,0.70
2022-09-27T10:57:01.449Z,0.75
2022-09-27T10:59:34.813Z,2.33
2022-09-27T11:02:03.750Z,1.10
2022-09-27T11:04:40.969Z,1.02
2022-09-27T11:07:16.370Z,1.40
2022-09-27T11:09:55.030Z,1.70
2022-09-27T11:12:25.411Z,1.60
2022-09-27T11:15:03.604Z,1.35
2022-09-27T11:17:46.751Z,1.67
2022-09-27T11:20:29.591Z,1.80
2022-09-27T11:23:27.906Z,1.63
2022-09-27T11:26:18.596Z,2.08
2022-09-27T11:29:01.896Z,2.00
2022-09-27T11:32:17.290Z,1.67
2022-09-27T11:35:20.231Z,1.58
2022-09-27T11:38:01.207Z,1.77
2022-09-27T11:40:38.537Z,1.45
2022-09-27T11:43:30.962Z,1.33
2022-09-27T11:46:18.170Z,1.60
2022-09-27T11:49:28.267Z,1.58
2022-09-27T11:52:40.241Z,1.63
2022-09-27T11:55:28.041Z,1.65
2022-09-27T11:58:06.344Z,1.20
2022-09-27T12:00:52.826Z,1.75
2022-09-27T12:03:54.782Z,1.33
2022-09-27T12:06:36.535Z,1.70
2022-09-27T12:09:09.432Z,1.50
2022-09-27T12:11:44.277Z,1.67
2022-09-27T12:14:26.550Z,1.77
2022-09-27T12:16:58.437Z,1.92
2022-09-27T12:19:35.920Z,2.42
2022-09-27T12:22:34.715Z,2.00
2022-09-27T12:25:20.333Z,2.20
2022-09-27T12:28:05.251Z,1.77
2022-09-27T12:30:38.737Z,1.40
2022-09-27T12:33:18.832Z,1.17
2022-09-27T12:35:52.601Z,1.70
2022-09-27T12:38:28.478Z,1.45
2022-09-27T12:40:59.531Z,1.60
2022-09-27T12:43:44.824Z,1.52
2022-09-27T12:49:35.449Z,1.70
2022-09-27T12:52:09.939Z,1.63
2022-09-27T12:55:28.516Z,1.60
2022-09-27T12:58:44.564Z,1.33
2022-09-27T13:01:29.763Z,1.90
2022-09-27T13:04:25.620Z,2.08
2022-09-27T13:07:24.900Z,1.95
2022-09-27T13:10:36.377Z,3.10
2022-09-27T13:13:16.695Z,2.60
2022-09-27T13:15:46.903Z,2.60
2022-09-27T13:18:49.494Z,3.00
2022-09-27T13:21:59.465Z,3.20
2022-09-27T13:24:47.046Z,3.00
2022-09-27T13:27:40.936Z,2.97
2022-09-27T13:30:46.124Z,1.92
2022-09-27T13:33:43.600Z,1.70
2022-09-27T13:36:33.177Z,1.35
2022-09-27T13:39:22.506Z,1.73
2022-09-27T13:42:36.739Z,1.73
2022-09-27T13:45:23.131Z,2.08
2022-09-27T13:47:53.606Z,1.60
2022-09-27T13:50:39.115Z,1.55
2022-09-27T13:53:28.414Z,1.85
2022-09-27T13:55:58.363Z,1.23
2022-09-27T13:58:52.476Z,1.40
2022-09-27T14:01:55.185Z,2.97
2022-09-27T14:04:36.914Z,1.23
2022-09-27T14:07:06.675Z,1.40
2022-09-27T14:09:39.694Z,1.10
2022-09-27T14:12:21.776Z,1.45
2022-09-27T14:14:52.674Z,1.13
2022-09-27T14:17:23.629Z,1.05
2022-09-27T14:19:54.043Z,0.85
2022-09-27T14:24:59.768Z,1.10
2022-09-27T14:27:40.569Z,1.10
2022-09-27T14:30:21.697Z,1.02
2022-09-27T14:33:02.340Z,1.45
2022-09-27T14:36:08.133Z,1.52
2022-09-27T14:38:38.912Z,1.20
2022-09-27T14:41:28.501Z,1.40
2022-09-27T14:43:56.589Z,1.30
2022-09-27T14:46:29.439Z,1.70
2022-09-27T14:48:59.306Z,1.17
2022-09-27T14:51:30.544Z,1.17
2022-09-27T14:54:04.282Z,1.50
2022-09-27T14:56:37.474Z,1.45
2022-09-27T14:59:14.710Z,1.10
2022-09-27T15:01:51.351Z,1.20
2022-09-27T15:04:23.137Z,0.77
2022-09-27T15:06:52.443Z,1.00
2022-09-27T15:09:21.601Z,1.10
2022-09-27T15:11:55.702Z,1.40
2022-09-27T15:14:26.059Z,1.10
2022-09-27T15:16:54.938Z,1.20
2022-09-27T15:19:29.095Z,1.10
2022-09-27T15:22:18.109Z,1.42
2022-09-27T15:24:48.145Z,1.50
2022-09-27T15:27:18.633Z,1.40
2022-09-27T15:29:51.294Z,1.50
2022-09-27T15:32:22.704Z,1.50
2022-09-27T15:34:52.540Z,1.65
2022-09-27T15:37:29.157Z,5.93
2022-09-27T15:40:09.781Z,2.05
2022-09-27T15:42:57.765Z,2.10
2022-09-27T15:45:30.426Z,1.48
2022-09-27T15:48:14.434Z,1.77
2022-09-27T15:50:44.506Z,1.42
2022-09-27T15:53:13.055Z,1.63
2022-09-27T15:55:43.800Z,1.80
2022-09-27T15:58:17.534Z,2.08
2022-09-27T16:00:57.173Z,1.83
2022-09-27T16:03:27.843Z,2.65
2022-09-27T16:05:59.809Z,2.20
2022-09-27T16:08:29.448Z,2.53
2022-09-27T16:10:59.929Z,2.58
2022-09-27T16:13:32.804Z,2.60
2022-09-27T16:16:02.812Z,2.35
2022-09-27T16:18:31.603Z,2.40
2022-09-27T16:21:01.124Z,2.63
2022-09-27T16:23:29.181Z,9.02
2022-09-27T16:25:57.204Z,240.23
2022-09-27T16:28:25.234Z,180.15
2022-09-27T16:30:53.289Z,461.10
2022-09-27T16:33:21.507Z,556.45
2022-09-27T16:35:50.202Z,424.38
2022-09-27T16:38:19.563Z,196.07
2022-09-27T16:40:47.725Z,244.48
2022-09-27T16:43:16.594Z,366.33
2022-09-27T16:45:44.951Z,511.70
2022-09-27T16:48:13.477Z,350.42
2022-09-27T16:50:58.947Z,570.50
2022-09-27T16:53:28.488Z,530.78
2022-09-27T16:56:00.378Z,384.17
2022-09-27T16:58:30.848Z,587.20
2022-09-27T17:00:59.864Z,472.10
2022-09-27T17:03:29.070Z,462.58
2022-09-27T17:06:02.487Z,465.35
2022-09-27T17:08:31.970Z,318.65
2022-09-27T17:11:00.172Z,397.60
2022-09-27T17:13:28.363Z,387.60
2022-09-27T17:15:56.655Z,426.52
2022-09-27T17:18:25.136Z,464.35
2022-09-27T17:20:53.150Z,546.13
2022-09-27T17:23:21.154Z,456.35
2022-09-27T17:25:50.586Z,379.90
2022-09-27T17:28:18.633Z,460.08
2022-09-27T17:30:46.979Z,486.95
2022-09-27T17:33:15.046Z,392.77
2022-09-27T17:35:44.337Z,504.27
2022-09-27T17:38:12.720Z,297.15
2022-09-27T17:40:40.927Z,250.63
2022-09-27T17:43:10.636Z,199.63
2022-09-27T17:45:38.652Z,302.85
2022-09-27T17:48:24.195Z,360.75
2022-09-27T17:50:52.219Z,4.68
2022-09-27T17:53:20.296Z,51.97
2022-09-27T17:55:48.705Z,207.35
2022-09-27T17:58:18.076Z,106.50
2022-09-27T18:00:46.683Z,165.52
2022-09-27T18:03:15.306Z,1.50
2022-09-27T18:05:43.844Z,1.50
2022-09-27T18:08:12.355Z,2.25
2022-09-27T18:10:40.742Z,1.85
2022-09-27T18:13:08.791Z,2.22
2022-09-27T18:15:39.119Z,1.80
2022-09-27T18:18:07.172Z,1.60
2022-09-27T18:20:36.154Z,1.88
2022-09-27T18:23:04.197Z,1.55
2022-09-27T18:25:32.748Z,1.58
2022-09-27T18:28:01.376Z,1.70
2022-09-27T18:30:29.366Z,1.50
2022-09-27T18:32:58.691Z,1.90
2022-09-27T18:35:28.727Z,1.60
2022-09-27T18:37:56.731Z,1.58
2022-09-27T18:40:51.394Z,2.10
2022-09-27T18:43:13.749Z,1.90
2022-09-27T18:45:42.070Z,1.88
2022-09-27T18:48:11.504Z,1.83
2022-09-27T18:50:39.466Z,1.85
2022-09-27T18:53:08.320Z,2.25
2022-09-27T18:55:38.356Z,2.10
2022-09-27T18:58:06.528Z,2.28
2022-09-27T19:00:34.600Z,2.45
2022-09-27T19:03:02.745Z,2.20
2022-09-27T19:05:32.068Z,2.78
2022-09-27T19:08:00.069Z,2.38
2022-09-27T19:10:28.144Z,2.63
2022-09-27T19:12:57.198Z,2.78
2022-09-27T19:15:25.594Z,2.65
2022-09-27T19:17:53.975Z,3.08
2022-09-27T19:20:22.034Z,2.78
2022-09-27T19:22:51.535Z,3.25
2022-09-27T19:25:19.810Z,4.00
2022-09-27T19:27:47.864Z,3.88
2022-09-27T19:30:16.172Z,3.13
2022-09-27T19:32:45.533Z,3.38
2022-09-27T19:35:13.652Z,3.40
2022-09-27T19:37:42.285Z,4.25
2022-09-27T19:40:11.817Z,4.70
2022-09-27T19:42:39.826Z,4.72
2022-09-27T19:45:11.708Z,4.13
2022-09-27T19:47:39.921Z,5.18
2022-09-27T19:50:09.366Z,5.57
2022-09-27T19:52:38.638Z,5.10
2022-09-27T19:55:08.541Z,5.90
2022-09-27T19:57:37.937Z,5.78
2022-09-27T20:00:07.534Z,5.68
2022-09-27T20:02:35.694Z,5.55
2022-09-27T20:05:04.607Z,5.95
2022-09-27T20:07:34.928Z,5.72
2022-09-27T20:10:03.023Z,5.88
2022-09-27T20:12:31.100Z,6.32
2022-09-27T20:15:00.411Z,8.57
2022-09-27T20:17:32.418Z,7.22
2022-09-27T20:20:00.547Z,7.03
2022-09-27T20:22:28.558Z,7.15
2022-09-27T20:24:56.531Z,7.35
2022-09-27T20:27:25.150Z,6.78
2022-09-27T20:29:53.480Z,6.65
2022-09-27T20:32:27.882Z,6.60
2022-09-27T20:34:56.430Z,6.57
2022-09-27T20:37:25.532Z,6.32
2022-09-27T20:39:54.097Z,7.25
2022-09-27T20:42:22.103Z,7.30
2022-09-27T20:44:54.138Z,8.05
2022-09-27T20:47:24.039Z,6.57
2022-09-27T20:49:52.048Z,6.15
2022-09-27T20:52:20.609Z,5.90
2022-09-27T20:54:48.666Z,6.70
2022-09-27T20:57:16.679Z,7.25
2022-09-27T20:59:44.641Z,6.45
2022-09-27T21:02:12.691Z,6.20
2022-09-27T21:04:42.126Z,5.88
2022-09-27T21:07:10.131Z,7.22
2022-09-27T21:09:38.790Z,7.05
2022-09-27T21:12:07.132Z,6.95
2022-09-27T21:14:35.370Z,6.18
2022-09-27T21:17:03.460Z,6.45
2022-09-27T21:19:31.616Z,6.45
2022-09-27T21:22:00.969Z,7.03
2022-09-27T21:24:28.942Z,6.53
2022-09-27T21:26:57.676Z,6.63
2022-09-27T21:29:25.670Z,6.78
2022-09-27T21:31:53.806Z,6.45
2022-09-27T21:34:21.852Z,6.68
2022-09-27T21:36:50.143Z,7.30
2022-09-27T21:39:19.474Z,7.28
2022-09-27T21:41:47.474Z,7.18
2022-09-27T21:44:15.711Z,6.30
2022-09-27T21:46:44.095Z,6.50
2022-09-27T21:49:12.161Z,6.53
2022-09-27T21:51:42.206Z,7.22
2022-09-27T21:54:15.037Z,7.55
2022-09-27T21:56:45.437Z,8.18
2022-09-27T21:59:16.015Z,7.65
2022-09-27T22:01:45.484Z,7.05
2022-09-27T22:04:14.442Z,7.25
2022-09-27T22:06:42.525Z,7.88
2022-09-27T22:09:15.818Z,8.20
2022-09-27T22:11:47.616Z,7.93
2022-09-27T22:14:17.275Z,7.88
2022-09-27T22:16:45.331Z,7.35
2022-09-27T22:19:15.586Z,8.23
2022-09-27T22:21:44.124Z,7.47
2022-09-27T22:24:15.112Z,7.40
2022-09-27T22:26:47.914Z,7.90
2022-09-27T22:29:16.384Z,7.75
2022-09-27T22:31:44.773Z,8.02
2022-09-27T22:34:18.963Z,8.85
2022-09-27T22:36:47.542Z,7.63
2022-09-27T22:39:15.686Z,8.13
2022-09-27T22:41:45.190Z,7.97
2022-09-27T22:44:13.203Z,8.02
2022-09-27T22:46:41.454Z,7.90
2022-09-27T22:49:09.807Z,7.40
2022-09-27T22:51:37.975Z,7.75
2022-09-27T22:54:06.444Z,7.03
2022-09-27T22:56:34.450Z,8.10
2022-09-27T22:59:04.100Z,7.72
2022-09-27T23:01:32.427Z,7.25
2022-09-27T23:04:00.706Z,7.45
2022-09-27T23:06:28.850Z,7.90
2022-09-27T23:08:58.090Z,7.93
2022-09-27T23:11:26.115Z,7.45
2022-09-27T23:13:54.205Z,7.95
2022-09-27T23:16:25.209Z,7.65
2022-09-27T23:18:54.911Z,7.07
2022-09-27T23:21:25.830Z,8.05
2022-09-27T23:23:56.159Z,6.72
2022-09-27T23:26:26.567Z,7.32
2022-09-27T23:28:55.192Z,8.10
2022-09-27T23:31:25.526Z,7.40
2022-09-27T23:33:54.736Z,8.35
2022-09-27T23:36:26.979Z,7.57
2022-09-27T23:41:24.035Z,6.95
2022-09-27T23:43:53.299Z,7.65
2022-09-27T23:46:21.669Z,7.70
2022-09-27T23:48:51.152Z,8.30
2022-09-27T23:51:19.239Z,8.15
2022-09-27T23:53:47.275Z,7.13
2022-09-27T23:56:18.131Z,7.82
2022-09-27T23:58:47.119Z,8.38
